createdAt,value
2022-10-10T00:00:12.385Z,95712
2022-10-10T00:01:21.187Z,95711
2022-10-10T00:02:29.901Z,95710
2022-10-10T00:03:39.593Z,95713
2022-10-10T00:04:48.281Z,95716
2022-10-10T00:05:57.993Z,95714
2022-10-10T00:07:07.794Z,95712
2022-10-10T00:08:15.535Z,95712
2022-10-10T00:09:24.256Z,95708
2022-10-10T00:10:32.985Z,95712
2022-10-10T00:11:41.683Z,95709
2022-10-10T00:12:51.722Z,95709
2022-10-10T00:14:00.101Z,95711
2022-10-10T00:15:09.795Z,95710
2022-10-10T00:16:19.502Z,95706
2022-10-10T00:17:28.174Z,95707
2022-10-10T00:18:36.924Z,95702
2022-10-10T00:19:46.640Z,95700
2022-10-10T00:20:55.391Z,95697
2022-10-10T00:22:05.070Z,95699
2022-10-10T00:23:13.777Z,95700
2022-10-10T00:24:22.491Z,95705
2022-10-10T00:25:32.215Z,95706
2022-10-10T00:26:40.928Z,95705
2022-10-10T00:27:50.670Z,95704
2022-10-10T00:29:00.329Z,95699
2022-10-10T00:30:09.073Z,95702
2022-10-10T00:31:18.802Z,95702
2022-10-10T00:32:28.490Z,95699
2022-10-10T00:33:37.452Z,95696
2022-10-10T00:34:47.176Z,95697
2022-10-10T00:35:55.848Z,95692
2022-10-10T00:37:05.545Z,95693
2022-10-10T00:38:14.244Z,95693
2022-10-10T00:39:22.935Z,95694
2022-10-10T00:40:32.637Z,95695
2022-10-10T00:41:40.349Z,95692
2022-10-10T00:42:49.264Z,95692
2022-10-10T00:43:58.829Z,95693
2022-10-10T00:45:08.458Z,95693
2022-10-10T00:46:17.127Z,95694
2022-10-10T00:47:25.851Z,95697
2022-10-10T00:48:34.537Z,95695
2022-10-10T00:49:44.247Z,95691
2022-10-10T00:50:51.947Z,95692
2022-10-10T00:52:01.677Z,95694
2022-10-10T00:53:11.381Z,95687
2022-10-10T00:54:20.064Z,95688
2022-10-10T00:55:27.743Z,95687
2022-10-10T00:56:37.428Z,95692
2022-10-10T00:57:46.111Z,95691
2022-10-10T00:58:55.806Z,95686
2022-10-10T01:00:03.588Z,95692
2022-10-10T01:01:12.261Z,95688
2022-10-10T01:02:21.889Z,95688
2022-10-10T01:03:30.576Z,95689
2022-10-10T01:04:44.434Z,95688
2022-10-10T01:05:50.080Z,95690
2022-10-10T01:06:58.766Z,95691
2022-10-10T01:08:07.504Z,95690
2022-10-10T01:09:16.205Z,95682
2022-10-10T01:10:25.953Z,95686
2022-10-10T01:11:34.633Z,95685
2022-10-10T01:12:44.363Z,95681
2022-10-10T01:13:54.089Z,95682
2022-10-10T01:15:01.832Z,95682
2022-10-10T01:16:11.625Z,95678
2022-10-10T01:17:21.321Z,95681
2022-10-10T01:18:30.088Z,95676
2022-10-10T01:19:39.876Z,95676
2022-10-10T01:20:47.539Z,95681
2022-10-10T01:21:57.258Z,95676
2022-10-10T01:23:06.941Z,95676
2022-10-10T01:24:15.608Z,95677
2022-10-10T01:25:25.335Z,95672
2022-10-10T01:26:34.126Z,95672
2022-10-10T01:27:43.955Z,95675
2022-10-10T01:28:53.671Z,95672
2022-10-10T01:30:02.372Z,95675
2022-10-10T01:31:11.087Z,95671
2022-10-10T01:32:20.863Z,95671
2022-10-10T01:33:31.539Z,95668
2022-10-10T01:34:41.275Z,95668
2022-10-10T01:35:49.973Z,95668
2022-10-10T01:36:59.638Z,95672
2022-10-10T01:38:09.354Z,95676
2022-10-10T01:39:19.072Z,95670
2022-10-10T01:40:27.743Z,95673
2022-10-10T01:41:37.409Z,95677
2022-10-10T01:42:47.123Z,95677
2022-10-10T01:43:55.860Z,95674
2022-10-10T01:45:05.625Z,95681
2022-10-10T01:46:14.309Z,95679
2022-10-10T01:47:24.038Z,95680
2022-10-10T01:48:33.688Z,95682
2022-10-10T01:49:42.389Z,95678
2022-10-10T01:50:52.113Z,95679
2022-10-10T01:51:59.800Z,95683
2022-10-10T01:53:08.508Z,95679
2022-10-10T01:54:17.215Z,95674
2022-10-10T01:55:26.892Z,95685
2022-10-10T01:56:36.660Z,95678
2022-10-10T01:57:44.343Z,95679
2022-10-10T01:58:53.024Z,95677
2022-10-10T02:00:02.712Z,95677
2022-10-10T02:01:11.495Z,95672
2022-10-10T02:02:20.100Z,95675
2022-10-10T02:03:28.911Z,95674
2022-10-10T02:04:38.580Z,95670
2022-10-10T02:05:48.294Z,95676
2022-10-10T02:06:55.982Z,95673
2022-10-10T02:08:05.716Z,95675
2022-10-10T02:09:15.398Z,95672
2022-10-10T02:10:24.096Z,95673
2022-10-10T02:11:33.790Z,95675
2022-10-10T02:12:42.493Z,95672
2022-10-10T02:13:51.186Z,95671
2022-10-10T02:15:00.887Z,95667
2022-10-10T02:16:09.573Z,95670
2022-10-10T02:17:18.256Z,95670
2022-10-10T02:18:27.969Z,95664
2022-10-10T02:19:35.721Z,95665
2022-10-10T02:20:44.403Z,95668
2022-10-10T02:21:53.086Z,95665
2022-10-10T02:23:00.761Z,95664
2022-10-10T02:24:10.450Z,95665
2022-10-10T02:25:19.176Z,95666
2022-10-10T02:26:28.877Z,95675
2022-10-10T02:27:38.627Z,95677
2022-10-10T02:28:46.358Z,95679
2022-10-10T02:29:56.015Z,95679
2022-10-10T02:31:04.768Z,95680
2022-10-10T02:32:13.500Z,95678
2022-10-10T02:33:23.178Z,95671
2022-10-10T02:34:31.853Z,95676
2022-10-10T02:35:41.588Z,95671
2022-10-10T02:36:51.288Z,95673
2022-10-10T02:37:58.968Z,95674
2022-10-10T02:39:07.632Z,95675
2022-10-10T02:40:16.323Z,95676
2022-10-10T02:41:25.111Z,95679
2022-10-10T02:42:34.854Z,95676
2022-10-10T02:43:42.554Z,95676
2022-10-10T02:44:52.238Z,95681
2022-10-10T02:46:01.930Z,95684
2022-10-10T02:47:08.609Z,95683
2022-10-10T02:48:18.346Z,95684
2022-10-10T02:49:27.048Z,95673
2022-10-10T02:50:35.816Z,95675
2022-10-10T02:51:45.597Z,95679
2022-10-10T02:52:55.345Z,95674
2022-10-10T02:54:04.078Z,95673
2022-10-10T02:55:12.806Z,95672
2022-10-10T02:56:21.467Z,95676
2022-10-10T02:57:30.185Z,95678
2022-10-10T02:58:38.937Z,95676
2022-10-10T02:59:48.637Z,95675
2022-10-10T03:00:58.493Z,95672
2022-10-10T03:02:06.994Z,95676
2022-10-10T03:03:16.757Z,95675
2022-10-10T03:04:24.479Z,95676
2022-10-10T03:05:33.252Z,95682
2022-10-10T03:06:42.933Z,95680
2022-10-10T03:07:52.648Z,95676
2022-10-10T03:09:01.324Z,95682
2022-10-10T03:10:10.027Z,95683
2022-10-10T03:11:19.787Z,95681
2022-10-10T03:12:28.497Z,95683
2022-10-10T03:13:36.237Z,95682
2022-10-10T03:14:44.901Z,95677
2022-10-10T03:15:54.597Z,95682
2022-10-10T03:17:04.310Z,95683
2022-10-10T03:18:14.052Z,95688
2022-10-10T03:19:22.764Z,95686
2022-10-10T03:20:31.438Z,95686
2022-10-10T03:21:41.133Z,95687
2022-10-10T03:22:49.121Z,95683
2022-10-10T03:23:58.622Z,95686
2022-10-10T03:25:08.355Z,95684
2022-10-10T03:26:16.070Z,95684
2022-10-10T03:27:25.761Z,95684
2022-10-10T03:28:34.706Z,95680
2022-10-10T03:29:44.348Z,95685
2022-10-10T03:30:53.042Z,95684
2022-10-10T03:32:00.751Z,95677
2022-10-10T03:33:09.450Z,95679
2022-10-10T03:34:19.213Z,95681
2022-10-10T03:35:27.882Z,95680
2022-10-10T03:36:36.671Z,95679
2022-10-10T03:37:46.347Z,95682
2022-10-10T03:38:56.107Z,95683
2022-10-10T03:40:05.931Z,95685
2022-10-10T03:41:15.661Z,95682
2022-10-10T03:42:25.373Z,95684
2022-10-10T03:43:35.074Z,95685
2022-10-10T03:44:42.745Z,95684
2022-10-10T03:45:51.455Z,95682
2022-10-10T03:47:01.166Z,95685
2022-10-10T03:48:09.838Z,95684
2022-10-10T03:49:19.518Z,95680
2022-10-10T03:50:28.214Z,95681
2022-10-10T03:51:36.926Z,95681
2022-10-10T03:52:46.632Z,95683
2022-10-10T03:53:54.312Z,95682
2022-10-10T03:55:03.212Z,95680
2022-10-10T03:56:13.280Z,95685
2022-10-10T03:57:22.847Z,95678
2022-10-10T03:58:32.538Z,95685
2022-10-10T03:59:41.102Z,95680
2022-10-10T04:00:49.843Z,95686
2022-10-10T04:01:59.614Z,95679
2022-10-10T04:03:08.314Z,95683
2022-10-10T04:04:17.080Z,95683
2022-10-10T04:05:25.772Z,95680
2022-10-10T04:06:34.454Z,95681
2022-10-10T04:07:44.136Z,95680
2022-10-10T04:08:52.882Z,95681
2022-10-10T04:10:01.558Z,95675
2022-10-10T04:11:11.288Z,95679
2022-10-10T04:12:21.148Z,95680
2022-10-10T04:13:29.901Z,95678
2022-10-10T04:14:38.639Z,95674
2022-10-10T04:15:46.369Z,95679
2022-10-10T04:16:58.671Z,95678
2022-10-10T04:18:06.770Z,95673
2022-10-10T04:19:17.199Z,95677
2022-10-10T04:20:26.948Z,95676
2022-10-10T04:21:35.631Z,95673
2022-10-10T04:22:45.321Z,95672
2022-10-10T04:23:55.066Z,95676
2022-10-10T04:25:04.728Z,95676
2022-10-10T04:26:14.507Z,95677
2022-10-10T04:27:23.125Z,95674
2022-10-10T04:28:32.946Z,95676
2022-10-10T04:29:42.482Z,95673
2022-10-10T04:30:50.149Z,95675
2022-10-10T04:31:58.826Z,95672
2022-10-10T04:33:08.517Z,95676
2022-10-10T04:34:17.214Z,95674
2022-10-10T04:35:26.897Z,95670
2022-10-10T04:36:34.610Z,95667
2022-10-10T04:37:43.307Z,95671
2022-10-10T04:38:53.013Z,95670
2022-10-10T04:40:01.691Z,95670
2022-10-10T04:41:09.468Z,95670
2022-10-10T04:42:18.183Z,95669
2022-10-10T04:43:26.964Z,95671
2022-10-10T04:44:36.651Z,95670
2022-10-10T04:45:45.319Z,95673
2022-10-10T04:46:53.972Z,95676
2022-10-10T04:48:03.652Z,95673
2022-10-10T04:49:12.368Z,95668
2022-10-10T04:50:22.046Z,95674
2022-10-10T04:51:30.714Z,95671
2022-10-10T04:52:39.402Z,95668
2022-10-10T04:53:50.515Z,95666
2022-10-10T04:54:58.774Z,95666
2022-10-10T04:56:07.438Z,95667
2022-10-10T04:57:17.141Z,95669
2022-10-10T04:58:25.802Z,95668
2022-10-10T04:59:35.552Z,95667
2022-10-10T05:00:45.281Z,95666
2022-10-10T05:01:52.921Z,95666
2022-10-10T05:03:02.669Z,95665
2022-10-10T05:04:11.352Z,95668
2022-10-10T05:05:21.055Z,95667
2022-10-10T05:06:28.777Z,95664
2022-10-10T05:07:37.457Z,95664
2022-10-10T05:08:47.240Z,95665
2022-10-10T05:09:54.974Z,95670
2022-10-10T05:11:04.675Z,95664
2022-10-10T05:12:13.509Z,95671
2022-10-10T05:13:22.207Z,95672
2022-10-10T05:14:31.897Z,95672
2022-10-10T05:15:39.591Z,95676
2022-10-10T05:16:49.285Z,95671
2022-10-10T05:17:57.972Z,95677
2022-10-10T05:19:07.671Z,95673
2022-10-10T05:20:16.339Z,95677
2022-10-10T05:21:25.047Z,95673
2022-10-10T05:22:34.721Z,95677
2022-10-10T05:23:44.450Z,95681
2022-10-10T05:24:52.136Z,95677
2022-10-10T05:26:00.802Z,95682
2022-10-10T05:27:10.527Z,95681
2022-10-10T05:28:19.247Z,95679
2022-10-10T05:29:27.943Z,95680
2022-10-10T05:30:36.632Z,95677
2022-10-10T05:31:45.340Z,95680
2022-10-10T05:32:55.081Z,95682
2022-10-10T05:34:03.882Z,95684
2022-10-10T05:35:12.663Z,95686
2022-10-10T05:36:22.368Z,95686
2022-10-10T05:37:31.095Z,95687
2022-10-10T05:38:39.796Z,95687
2022-10-10T05:39:52.445Z,95684
2022-10-10T05:40:58.177Z,95687
2022-10-10T05:42:07.972Z,95689
2022-10-10T05:43:16.652Z,95690
2022-10-10T05:44:25.335Z,95687
2022-10-10T05:45:35.056Z,95694
2022-10-10T05:46:43.845Z,95692
2022-10-10T05:47:52.534Z,95695
2022-10-10T05:49:01.260Z,95693
2022-10-10T05:50:10.938Z,95694
2022-10-10T05:51:19.688Z,95695
2022-10-10T05:52:28.382Z,95695
2022-10-10T05:53:37.046Z,95699
2022-10-10T05:54:46.750Z,95695
2022-10-10T05:55:55.533Z,95699
2022-10-10T05:57:05.253Z,95695
2022-10-10T05:58:15.054Z,95704
2022-10-10T05:59:24.799Z,95703
2022-10-10T06:00:34.518Z,95704
2022-10-10T06:01:43.211Z,95699
2022-10-10T06:02:52.133Z,95702
2022-10-10T06:04:01.765Z,95703
2022-10-10T06:05:11.486Z,95701
2022-10-10T06:06:20.166Z,95702
2022-10-10T06:07:45.796Z,95707
2022-10-10T06:08:40.486Z,95707
2022-10-10T06:09:50.156Z,95706
2022-10-10T06:10:58.846Z,95710
2022-10-10T06:12:07.576Z,95713
2022-10-10T06:13:20.448Z,95710
2022-10-10T06:14:27.890Z,95715
2022-10-10T06:15:35.617Z,95719
2022-10-10T06:16:44.318Z,95722
2022-10-10T06:17:53.071Z,95721
2022-10-10T06:19:02.780Z,95718
2022-10-10T06:20:12.614Z,95721
2022-10-10T06:21:22.382Z,95720
2022-10-10T06:22:32.039Z,95718
2022-10-10T06:23:40.724Z,95715
2022-10-10T06:24:53.002Z,95717
2022-10-10T06:26:00.093Z,95721
2022-10-10T06:27:09.830Z,95719
2022-10-10T06:28:19.541Z,95725
2022-10-10T06:29:27.223Z,95720
2022-10-10T06:30:36.889Z,95722
2022-10-10T06:31:46.669Z,95721
2022-10-10T06:32:56.930Z,95727
2022-10-10T06:34:05.108Z,95724
2022-10-10T06:35:13.833Z,95726
2022-10-10T06:36:22.486Z,95726
2022-10-10T06:37:32.243Z,95730
2022-10-10T06:38:40.910Z,95727
2022-10-10T06:39:49.724Z,95727
2022-10-10T06:41:00.573Z,95726
2022-10-10T06:42:08.115Z,95725
2022-10-10T06:43:17.804Z,95727
2022-10-10T06:44:26.600Z,95729
2022-10-10T06:45:36.284Z,95723
2022-10-10T06:46:45.997Z,95722
2022-10-10T06:47:53.732Z,95728
2022-10-10T06:49:02.428Z,95731
2022-10-10T06:50:12.177Z,95733
2022-10-10T06:51:21.837Z,95727
2022-10-10T06:52:31.572Z,95730
2022-10-10T06:53:40.378Z,95729
2022-10-10T06:54:49.038Z,95729
2022-10-10T06:55:58.796Z,95730
2022-10-10T06:57:08.482Z,95731
2022-10-10T06:58:18.173Z,95731
2022-10-10T06:59:25.891Z,95728
2022-10-10T07:00:35.576Z,95732
2022-10-10T07:01:45.450Z,95735
2022-10-10T07:02:53.428Z,95738
2022-10-10T07:04:01.824Z,95738
2022-10-10T07:05:11.573Z,95740
2022-10-10T07:06:20.245Z,95745
2022-10-10T07:07:29.990Z,95743
2022-10-10T07:08:38.702Z,95745
2022-10-10T07:09:48.435Z,95743
2022-10-10T07:10:59.103Z,95742
2022-10-10T07:12:06.877Z,95740
2022-10-10T07:13:16.615Z,95745
2022-10-10T07:14:25.327Z,95744
2022-10-10T07:15:34.032Z,95739
2022-10-10T07:16:43.731Z,95742
2022-10-10T07:17:54.317Z,95744
2022-10-10T07:19:01.120Z,95743
2022-10-10T07:20:10.822Z,95746
2022-10-10T07:21:18.503Z,95750
2022-10-10T07:22:27.240Z,95752
2022-10-10T07:23:36.926Z,95744
2022-10-10T07:24:45.647Z,95750
2022-10-10T07:25:55.420Z,95748
2022-10-10T07:27:08.587Z,95751
2022-10-10T07:28:13.847Z,95751
2022-10-10T07:29:23.487Z,95753
2022-10-10T07:30:33.229Z,95761
2022-10-10T07:31:42.896Z,95757
2022-10-10T07:32:51.848Z,95761
2022-10-10T07:34:01.320Z,95760
2022-10-10T07:35:11.024Z,95764
2022-10-10T07:36:19.846Z,95761
2022-10-10T07:37:28.494Z,95762
2022-10-10T07:38:38.242Z,95762
2022-10-10T07:39:45.910Z,95762
2022-10-10T07:40:54.594Z,95762
2022-10-10T07:42:03.353Z,95762
2022-10-10T07:43:12.040Z,95765
2022-10-10T07:44:21.745Z,95767
2022-10-10T07:45:31.480Z,95769
2022-10-10T07:46:41.166Z,95767
2022-10-10T07:47:51.320Z,95763
2022-10-10T07:48:59.773Z,95764
2022-10-10T07:50:09.494Z,95766
2022-10-10T07:51:19.218Z,95766
2022-10-10T07:52:27.882Z,95768
2022-10-10T07:53:37.686Z,95764
2022-10-10T07:54:46.439Z,95765
2022-10-10T07:55:56.204Z,95768
2022-10-10T07:57:06.049Z,95769
2022-10-10T07:58:15.903Z,95766
2022-10-10T07:59:24.664Z,95768
2022-10-10T08:00:33.425Z,95773
2022-10-10T08:01:42.156Z,95775
2022-10-10T08:02:51.906Z,95768
2022-10-10T08:04:00.632Z,95771
2022-10-10T08:05:10.376Z,95771
2022-10-10T08:06:20.058Z,95775
2022-10-10T08:07:29.741Z,95773
2022-10-10T08:08:48.752Z,95772
2022-10-10T08:09:49.165Z,95770
2022-10-10T08:10:58.897Z,95766
2022-10-10T08:12:08.588Z,95772
2022-10-10T08:13:17.312Z,95773
2022-10-10T08:14:26.012Z,95773
2022-10-10T08:15:35.718Z,95773
2022-10-10T08:16:45.423Z,95770
2022-10-10T08:17:54.417Z,95773
2022-10-10T08:19:02.831Z,95777
2022-10-10T08:20:12.487Z,95775
2022-10-10T08:21:22.210Z,95774
2022-10-10T08:22:31.958Z,95780
2022-10-10T08:23:41.643Z,95778
2022-10-10T08:24:51.356Z,95781
2022-10-10T08:25:59.029Z,95781
2022-10-10T08:27:07.726Z,95781
2022-10-10T08:28:17.523Z,95779
2022-10-10T08:29:26.234Z,95784
2022-10-10T08:30:35.895Z,95789
2022-10-10T08:31:44.578Z,95788
2022-10-10T08:32:54.435Z,95779
2022-10-10T08:34:04.211Z,95781
2022-10-10T08:35:11.929Z,95788
2022-10-10T08:36:20.604Z,95784
2022-10-10T08:37:33.894Z,95784
2022-10-10T08:38:39.994Z,95783
2022-10-10T08:39:49.743Z,95785
2022-10-10T08:40:57.425Z,95781
2022-10-10T08:42:06.183Z,95779
2022-10-10T08:43:15.881Z,95779
2022-10-10T08:44:24.611Z,95774
2022-10-10T08:45:33.384Z,95774
2022-10-10T08:46:43.131Z,95776
2022-10-10T08:47:51.813Z,95777
2022-10-10T08:49:01.528Z,95774
2022-10-10T08:50:10.250Z,95771
2022-10-10T08:51:19.026Z,95776
2022-10-10T08:52:28.748Z,95781
2022-10-10T08:53:37.410Z,95779
2022-10-10T08:54:47.088Z,95780
2022-10-10T08:55:57.771Z,95777
2022-10-10T08:57:06.506Z,95778
2022-10-10T08:58:17.244Z,95783
2022-10-10T08:59:25.914Z,95783
2022-10-10T09:00:35.730Z,95783
2022-10-10T09:02:17.430Z,95783
2022-10-10T09:02:56.352Z,95784
2022-10-10T09:04:05.785Z,95786
2022-10-10T09:05:14.496Z,95786
2022-10-10T09:06:23.172Z,95790
2022-10-10T09:07:31.847Z,95785
2022-10-10T09:08:40.735Z,95795
2022-10-10T09:09:50.431Z,95791
2022-10-10T09:10:58.594Z,95794
2022-10-10T09:12:06.939Z,95799
2022-10-10T09:13:16.703Z,95791
2022-10-10T09:14:25.444Z,95792
2022-10-10T09:15:34.210Z,95794
2022-10-10T09:16:42.965Z,95786
2022-10-10T09:17:52.628Z,95783
2022-10-10T09:19:02.313Z,95783
2022-10-10T09:20:11.017Z,95786
2022-10-10T09:21:19.688Z,95783
2022-10-10T09:22:29.370Z,95782
2022-10-10T09:23:38.070Z,95780
2022-10-10T09:24:46.807Z,95786
2022-10-10T09:25:55.512Z,95789
2022-10-10T09:27:05.254Z,95788
2022-10-10T09:28:14.989Z,95784
2022-10-10T09:29:22.631Z,95790
2022-10-10T09:30:31.323Z,95785
2022-10-10T09:31:41.044Z,95788
2022-10-10T09:32:48.749Z,95791
2022-10-10T09:33:57.417Z,95787
2022-10-10T09:35:06.112Z,95792
2022-10-10T09:36:13.819Z,95793
2022-10-10T09:37:45.568Z,95798
2022-10-10T09:38:34.277Z,95796
2022-10-10T09:39:42.967Z,95795
2022-10-10T09:40:52.673Z,95785
2022-10-10T09:42:02.428Z,95792
2022-10-10T09:43:11.178Z,95790
2022-10-10T09:44:19.885Z,95790
2022-10-10T09:45:28.634Z,95789
2022-10-10T09:46:38.375Z,95798
2022-10-10T09:47:47.113Z,95795
2022-10-10T09:48:56.878Z,95794
2022-10-10T09:50:06.561Z,95797
2022-10-10T09:51:15.277Z,95803
2022-10-10T09:52:24.976Z,95800
2022-10-10T09:53:32.659Z,95799
2022-10-10T09:54:41.535Z,95802
2022-10-10T09:55:51.210Z,95801
2022-10-10T09:56:59.060Z,95808
2022-10-10T09:58:08.730Z,95805
2022-10-10T09:59:18.455Z,95809
2022-10-10T10:00:26.224Z,95801
2022-10-10T10:01:34.961Z,95809
2022-10-10T10:02:43.584Z,95806
2022-10-10T10:03:54.219Z,95807
2022-10-10T10:05:03.003Z,95806
2022-10-10T10:06:12.721Z,95804
2022-10-10T10:07:21.423Z,95805
2022-10-10T10:08:31.104Z,95802
2022-10-10T10:09:39.879Z,95802
2022-10-10T10:10:48.589Z,95801
2022-10-10T10:11:58.475Z,95807
2022-10-10T10:13:07.182Z,95806
2022-10-10T10:14:17.050Z,95803
2022-10-10T10:15:24.765Z,95799
2022-10-10T10:16:33.492Z,95804
2022-10-10T10:17:43.210Z,95801
2022-10-10T10:18:51.890Z,95806
2022-10-10T10:20:00.597Z,95804
2022-10-10T10:21:10.322Z,95802
2022-10-10T10:22:22.228Z,95806
2022-10-10T10:23:29.678Z,95804
2022-10-10T10:24:37.483Z,95801
2022-10-10T10:25:47.217Z,95801
2022-10-10T10:26:56.933Z,95805
2022-10-10T10:28:05.688Z,95799
2022-10-10T10:29:13.349Z,95794
2022-10-10T10:30:22.049Z,95802
2022-10-10T10:31:31.783Z,95804
2022-10-10T10:32:42.497Z,95806
2022-10-10T10:33:51.225Z,95802
2022-10-10T10:35:00.067Z,95803
2022-10-10T10:36:09.741Z,95803
2022-10-10T10:37:17.453Z,95801
2022-10-10T10:38:26.110Z,95800
2022-10-10T10:39:34.786Z,95799
2022-10-10T10:40:43.526Z,95796
2022-10-10T10:41:53.297Z,95798
2022-10-10T10:43:02.115Z,95796
2022-10-10T10:44:10.804Z,95797
2022-10-10T10:45:20.510Z,95795
2022-10-10T10:46:29.238Z,95801
2022-10-10T10:47:39.043Z,95793
2022-10-10T10:48:47.725Z,95795
2022-10-10T10:49:56.399Z,95796
2022-10-10T10:51:06.097Z,95795
2022-10-10T10:52:13.868Z,95799
2022-10-10T10:53:22.583Z,95794
2022-10-10T10:54:32.254Z,95791
2022-10-10T10:55:40.915Z,95790
2022-10-10T10:56:51.606Z,95788
2022-10-10T10:58:37.550Z,95794
2022-10-10T10:59:36.161Z,95792
2022-10-10T11:00:47.639Z,95785
2022-10-10T11:02:04.756Z,95786
2022-10-10T11:02:59.480Z,95784
2022-10-10T11:04:16.019Z,95791
2022-10-10T11:05:17.062Z,95789
2022-10-10T11:06:17.585Z,95791
2022-10-10T11:07:26.285Z,95789
2022-10-10T11:08:35.915Z,95792
2022-10-10T11:09:49.935Z,95792
2022-10-10T11:10:55.305Z,95787
2022-10-10T11:12:04.969Z,95782
2022-10-10T11:13:13.686Z,95788
2022-10-10T11:14:22.349Z,95788
2022-10-10T11:15:54.436Z,95782
2022-10-10T11:16:48.261Z,95782
2022-10-10T11:17:51.655Z,95780
2022-10-10T11:19:01.403Z,95776
2022-10-10T11:20:11.120Z,95780
2022-10-10T11:21:20.890Z,95779
2022-10-10T11:22:29.631Z,95781
2022-10-10T11:23:39.344Z,95776
2022-10-10T11:24:49.022Z,95775
2022-10-10T11:25:58.752Z,95776
2022-10-10T11:27:07.463Z,95774
2022-10-10T11:28:16.186Z,95776
2022-10-10T11:29:24.838Z,95774
2022-10-10T11:30:34.542Z,95772
2022-10-10T11:31:43.257Z,95773
2022-10-10T11:32:52.959Z,95775
2022-10-10T11:34:02.678Z,95772
2022-10-10T11:35:11.370Z,95773
2022-10-10T11:36:20.117Z,95776
2022-10-10T11:37:29.855Z,95775
2022-10-10T11:38:37.629Z,95777
2022-10-10T11:39:47.372Z,95777
2022-10-10T11:40:56.126Z,95775
2022-10-10T11:42:03.859Z,95777
2022-10-10T11:43:13.597Z,95777
2022-10-10T11:44:21.467Z,95775
2022-10-10T11:45:31.258Z,95775
2022-10-10T11:46:39.950Z,95776
2022-10-10T11:47:49.659Z,95780
2022-10-10T11:48:59.349Z,95778
2022-10-10T11:50:09.050Z,95778
2022-10-10T11:51:18.784Z,95779
2022-10-10T11:52:33.900Z,95779
2022-10-10T11:53:38.292Z,95778
2022-10-10T11:54:48.030Z,95772
2022-10-10T11:55:58.204Z,95768
2022-10-10T11:57:10.711Z,95769
2022-10-10T11:58:17.239Z,95772
2022-10-10T11:59:25.944Z,95775
2022-10-10T12:00:35.645Z,95769
2022-10-10T12:01:45.560Z,95772
2022-10-10T12:02:53.213Z,95769
2022-10-10T12:04:02.939Z,95771
2022-10-10T12:05:12.668Z,95767
2022-10-10T12:06:21.399Z,95775
2022-10-10T12:07:31.105Z,95768
2022-10-10T12:08:38.855Z,95768
2022-10-10T12:09:47.520Z,95774
2022-10-10T12:10:57.292Z,95776
2022-10-10T12:12:06.007Z,95774
2022-10-10T12:13:14.717Z,95777
2022-10-10T12:14:23.440Z,95773
2022-10-10T12:15:36.196Z,95772
2022-10-10T12:16:43.854Z,95768
2022-10-10T12:17:53.555Z,95770
2022-10-10T12:19:03.328Z,95767
2022-10-10T12:20:13.133Z,95764
2022-10-10T12:21:20.858Z,95761
2022-10-10T12:22:30.550Z,95765
2022-10-10T12:23:40.252Z,95768
2022-10-10T12:24:50.324Z,95770
2022-10-10T12:26:00.017Z,95771
2022-10-10T12:27:08.483Z,95769
2022-10-10T12:28:18.253Z,95767
2022-10-10T12:29:27.989Z,95769
2022-10-10T12:30:36.748Z,95769
2022-10-10T12:31:45.461Z,95767
2022-10-10T12:32:55.202Z,95761
2022-10-10T12:34:03.850Z,95764
2022-10-10T12:35:13.628Z,95764
2022-10-10T12:36:22.411Z,95765
2022-10-10T12:37:31.178Z,95765
2022-10-10T12:38:40.878Z,95766
2022-10-10T12:39:49.582Z,95767
2022-10-10T12:40:58.472Z,95762
2022-10-10T12:42:08.133Z,95766
2022-10-10T12:43:16.894Z,95768
2022-10-10T12:44:26.661Z,95766
2022-10-10T12:45:36.388Z,95765
2022-10-10T12:46:46.125Z,95768
2022-10-10T12:48:10.252Z,95762
2022-10-10T12:49:06.562Z,95761
2022-10-10T12:50:15.296Z,95764
2022-10-10T12:51:23.028Z,95762
2022-10-10T12:52:31.720Z,95764
2022-10-10T12:53:40.467Z,95765
2022-10-10T12:54:49.168Z,95765
2022-10-10T12:55:58.884Z,95762
2022-10-10T12:57:06.658Z,95760
2022-10-10T12:58:26.027Z,95759
2022-10-10T12:59:27.137Z,95759
2022-10-10T13:00:34.867Z,95766
2022-10-10T13:01:43.579Z,95765
2022-10-10T13:02:53.290Z,95762
2022-10-10T13:04:02.000Z,95762
2022-10-10T13:05:11.913Z,95760
2022-10-10T13:06:20.639Z,95763
2022-10-10T13:07:29.359Z,95760
2022-10-10T13:08:39.049Z,95766
2022-10-10T13:09:48.785Z,95759
2022-10-10T13:10:57.542Z,95766
2022-10-10T13:12:06.273Z,95768
2022-10-10T13:13:15.019Z,95764
2022-10-10T13:14:24.803Z,95763
2022-10-10T13:15:33.505Z,95761
2022-10-10T13:16:43.278Z,95762
2022-10-10T13:17:53.077Z,95760
2022-10-10T13:19:01.883Z,95760
2022-10-10T13:20:10.612Z,95759
2022-10-10T13:21:20.370Z,95761
2022-10-10T13:22:29.109Z,95759
2022-10-10T13:23:38.890Z,95759
2022-10-10T13:24:46.605Z,95754
2022-10-10T13:25:55.354Z,95760
2022-10-10T13:27:05.078Z,95757
2022-10-10T13:28:12.918Z,95759
2022-10-10T13:29:21.655Z,95758
2022-10-10T13:30:30.383Z,95762
2022-10-10T13:31:39.127Z,95760
2022-10-10T13:32:48.888Z,95766
2022-10-10T13:33:58.582Z,95769
2022-10-10T13:35:08.327Z,95761
2022-10-10T13:36:18.041Z,95758
2022-10-10T13:37:27.771Z,95762
2022-10-10T13:38:37.477Z,95765
2022-10-10T13:39:47.201Z,95763
2022-10-10T13:40:56.939Z,95765
2022-10-10T13:42:06.658Z,95762
2022-10-10T13:43:14.356Z,95764
2022-10-10T13:44:23.074Z,95768
2022-10-10T13:45:32.872Z,95770
2022-10-10T13:46:41.584Z,95772
2022-10-10T13:47:51.336Z,95770
2022-10-10T13:49:01.068Z,95775
2022-10-10T13:50:10.822Z,95770
2022-10-10T13:51:20.660Z,95770
2022-10-10T13:52:28.359Z,95767
2022-10-10T13:53:38.135Z,95772
2022-10-10T13:54:47.861Z,95770
2022-10-10T13:55:56.537Z,95766
2022-10-10T13:57:06.316Z,95772
2022-10-10T13:58:15.015Z,95767
2022-10-10T13:59:24.760Z,95773
2022-10-10T14:00:34.501Z,95770
2022-10-10T14:01:43.470Z,95774
2022-10-10T14:02:53.172Z,95772
2022-10-10T14:04:02.903Z,95770
2022-10-10T14:05:11.625Z,95773
2022-10-10T14:06:21.323Z,95769
2022-10-10T14:07:30.059Z,95768
2022-10-10T14:08:40.078Z,95770
2022-10-10T14:09:53.343Z,95766
2022-10-10T14:10:59.740Z,95772
2022-10-10T14:12:08.220Z,95767
2022-10-10T14:13:16.937Z,95768
2022-10-10T14:14:25.784Z,95770
2022-10-10T14:15:34.527Z,95770
2022-10-10T14:16:43.249Z,95768
2022-10-10T14:17:52.952Z,95770
2022-10-10T14:19:02.671Z,95768
2022-10-10T14:20:11.440Z,95765
2022-10-10T14:21:20.123Z,95769
2022-10-10T14:22:29.903Z,95765
2022-10-10T14:23:40.603Z,95765
2022-10-10T14:24:49.287Z,95768
2022-10-10T14:25:57.987Z,95767
2022-10-10T14:27:06.730Z,95768
2022-10-10T14:28:17.478Z,95769
2022-10-10T14:29:27.137Z,95761
2022-10-10T14:30:35.925Z,95765
2022-10-10T14:31:45.676Z,95763
2022-10-10T14:32:55.361Z,95763
2022-10-10T14:34:05.140Z,95764
2022-10-10T14:35:14.915Z,95763
2022-10-10T14:36:23.644Z,95765
2022-10-10T14:37:33.405Z,95767
2022-10-10T14:38:43.084Z,95766
2022-10-10T14:39:52.785Z,95763
2022-10-10T14:41:02.922Z,95763
2022-10-10T14:42:10.211Z,95763
2022-10-10T14:43:19.014Z,95761
2022-10-10T14:44:27.785Z,95767
2022-10-10T14:45:36.532Z,95764
2022-10-10T14:46:46.247Z,95766
2022-10-10T14:47:53.948Z,95769
2022-10-10T14:49:03.681Z,95767
2022-10-10T14:50:14.366Z,95766